sensor_id;sensor_type;location;lat;lon;timestamp;pressure;altitude;pressure_sealevel;temperature;humidity
47330;BME280;33060;50.178;7.570;2022-11-11T00:00:20;98437.16;;;3.63;96.00
47330;BME280;33060;50.178;7.570;2022-11-11T00:03:05;98442.34;;;3.64;97.24
47330;BME280;33060;50.178;7.570;2022-11-11T00:05:50;98447.47;;;3.69;97.65
47330;BME280;33060;50.178;7.570;2022-11-11T00:08:35;98452.03;;;3.59;98.57
47330;BME280;33060;50.178;7.570;2022-11-11T00:11:21;98459.56;;;3.75;100.00
47330;BME280;33060;50.178;7.570;2022-11-11T00:14:06;98458.38;;;3.88;100.00
47330;BME280;33060;50.178;7.570;2022-11-11T00:16:51;98456.41;;;4.01;99.70
47330;BME280;33060;50.178;7.570;2022-11-11T00:19:55;98460.41;;;4.15;98.44
47330;BME280;33060;50.178;7.570;2022-11-11T00:23:03;98467.16;;;4.25;99.23
47330;BME280;33060;50.178;7.570;2022-11-11T00:26:08;98468.56;;;4.40;99.91
47330;BME280;33060;50.178;7.570;2022-11-11T00:29:13;98466.69;;;4.47;100.00
47330;BME280;33060;50.178;7.570;2022-11-11T00:31:58;98463.75;;;4.61;100.00
47330;BME280;33060;50.178;7.570;2022-11-11T00:35:03;98464.09;;;4.82;100.00
47330;BME280;33060;50.178;7.570;2022-11-11T00:38:11;98460.03;;;5.05;100.00
47330;BME280;33060;50.178;7.570;2022-11-11T00:41:19;98462.53;;;5.09;100.00
47330;BME280;33060;50.178;7.570;2022-11-11T00:44:04;98457.06;;;5.19;100.00
47330;BME280;33060;50.178;7.570;2022-11-11T00:46:50;98462.75;;;5.34;100.00
47330;BME280;33060;50.178;7.570;2022-11-11T00:49:54;98457.81;;;5.56;100.00
47330;BME280;33060;50.178;7.570;2022-11-11T00:52:58;98455.88;;;5.63;100.00
47330;BME280;33060;50.178;7.570;2022-11-11T00:55:43;98454.56;;;5.48;100.00
47330;BME280;33060;50.178;7.570;2022-11-11T00:58:28;98457.97;;;5.50;100.00
47330;BME280;33060;50.178;7.570;2022-11-11T01:01:14;98453.69;;;5.48;100.00
47330;BME280;33060;50.178;7.570;2022-11-11T01:03:59;98445.59;;;5.57;100.00
47330;BME280;33060;50.178;7.570;2022-11-11T01:06:45;98445.22;;;5.69;100.00
47330;BME280;33060;50.178;7.570;2022-11-11T01:09:30;98451.06;;;5.79;100.00
47330;BME280;33060;50.178;7.570;2022-11-11T01:12:15;98436.72;;;5.93;100.00
47330;BME280;33060;50.178;7.570;2022-11-11T01:15:00;98431.31;;;6.00;100.00
47330;BME280;33060;50.178;7.570;2022-11-11T01:17:46;98428.63;;;6.01;100.00
47330;BME280;33060;50.178;7.570;2022-11-11T01:20:31;98438.03;;;6.07;100.00
47330;BME280;33060;50.178;7.570;2022-11-11T01:23:17;98431.66;;;6.17;100.00
47330;BME280;33060;50.178;7.570;2022-11-11T01:26:11;98428.88;;;6.21;100.00
47330;BME280;33060;50.178;7.570;2022-11-11T01:28:57;98421.00;;;6.21;100.00
47330;BME280;33060;50.178;7.570;2022-11-11T01:31:43;98414.00;;;6.22;100.00
47330;BME280;33060;50.178;7.570;2022-11-11T01:34:28;98418.28;;;6.26;100.00
47330;BME280;33060;50.178;7.570;2022-11-11T01:37:14;98418.16;;;6.29;100.00
47330;BME280;33060;50.178;7.570;2022-11-11T01:39:59;98415.44;;;6.32;100.00
47330;BME280;33060;50.178;7.570;2022-11-11T01:42:46;98416.16;;;6.37;100.00
47330;BME280;33060;50.178;7.570;2022-11-11T01:45:46;98411.84;;;6.36;100.00
47330;BME280;33060;50.178;7.570;2022-11-11T01:48:41;98408.59;;;6.28;100.00
47330;BME280;33060;50.178;7.570;2022-11-11T01:51:52;98409.50;;;6.27;100.00
47330;BME280;33060;50.178;7.570;2022-11-11T01:54:42;98408.59;;;6.28;100.00
47330;BME280;33060;50.178;7.570;2022-11-11T01:57:39;98410.44;;;6.24;100.00
47330;BME280;33060;50.178;7.570;2022-11-11T02:00:27;98403.34;;;6.28;100.00
47330;BME280;33060;50.178;7.570;2022-11-11T02:03:13;98407.72;;;6.28;100.00
47330;BME280;33060;50.178;7.570;2022-11-11T02:05:59;98410.31;;;6.29;100.00
47330;BME280;33060;50.178;7.570;2022-11-11T02:08:45;98400.09;;;6.20;100.00
47330;BME280;33060;50.178;7.570;2022-11-11T02:11:32;98402.84;;;6.17;100.00
47330;BME280;33060;50.178;7.570;2022-11-11T02:14:46;98422.78;;;6.21;100.00
47330;BME280;33060;50.178;7.570;2022-11-11T02:17:33;98421.91;;;6.20;100.00
47330;BME280;33060;50.178;7.570;2022-11-11T02:20:22;98434.78;;;6.28;100.00
47330;BME280;33060;50.178;7.570;2022-11-11T02:23:33;98431.38;;;6.26;100.00
47330;BME280;33060;50.178;7.570;2022-11-11T02:26:21;98426.25;;;6.21;100.00
47330;BME280;33060;50.178;7.570;2022-11-11T02:29:10;98428.13;;;6.18;100.00
47330;BME280;33060;50.178;7.570;2022-11-11T02:31:57;98431.53;;;6.20;100.00
47330;BME280;33060;50.178;7.570;2022-11-11T02:34:42;98437.53;;;6.23;100.00
47330;BME280;33060;50.178;7.570;2022-11-11T02:37:28;98433.94;;;6.28;100.00
47330;BME280;33060;50.178;7.570;2022-11-11T02:40:20;98444.25;;;6.32;100.00
47330;BME280;33060;50.178;7.570;2022-11-11T02:43:08;98450.41;;;6.31;100.00
47330;BME280;33060;50.178;7.570;2022-11-11T02:45:54;98449.44;;;6.35;100.00
47330;BME280;33060;50.178;7.570;2022-11-11T02:48:39;98457.19;;;6.38;100.00
47330;BME280;33060;50.178;7.570;2022-11-11T02:51:24;98456.28;;;6.39;100.00
47330;BME280;33060;50.178;7.570;2022-11-11T02:54:09;98457.19;;;6.38;100.00
47330;BME280;33060;50.178;7.570;2022-11-11T02:56:55;98454.47;;;6.41;100.00
47330;BME280;33060;50.178;7.570;2022-11-11T02:59:52;98459.56;;;6.46;100.00
47330;BME280;33060;50.178;7.570;2022-11-11T03:02:38;98458.53;;;6.51;100.00
47330;BME280;33060;50.178;7.570;2022-11-11T03:05:23;98470.72;;;6.53;100.00
47330;BME280;33060;50.178;7.570;2022-11-11T03:08:08;98467.28;;;6.50;100.00
47330;BME280;33060;50.178;7.570;2022-11-11T03:10:54;98456.03;;;6.47;100.00
47330;BME280;33060;50.178;7.570;2022-11-11T03:13:39;98460.66;;;6.39;100.00
47330;BME280;33060;50.178;7.570;2022-11-11T03:16:25;98462.59;;;6.32;100.00
47330;BME280;33060;50.178;7.570;2022-11-11T03:19:29;98458.28;;;6.31;100.00
47330;BME280;33060;50.178;7.570;2022-11-11T03:22:14;98461.53;;;6.39;100.00
47330;BME280;33060;50.178;7.570;2022-11-11T03:25:19;98456.16;;;6.42;100.00
47330;BME280;33060;50.178;7.570;2022-11-11T03:28:22;98461.56;;;6.38;100.00
47330;BME280;33060;50.178;7.570;2022-11-11T03:31:09;98459.91;;;6.35;100.00
47330;BME280;33060;50.178;7.570;2022-11-11T03:33:54;98461.00;;;6.28;100.00
47330;BME280;33060;50.178;7.570;2022-11-11T03:36:39;98456.03;;;6.19;100.00
47330;BME280;33060;50.178;7.570;2022-11-11T03:39:43;98457.75;;;6.20;100.00
47330;BME280;33060;50.178;7.570;2022-11-11T03:42:28;98466.56;;;6.17;100.00
47330;BME280;33060;50.178;7.570;2022-11-11T03:45:13;98471.41;;;6.02;100.00
47330;BME280;33060;50.178;7.570;2022-11-11T03:47:59;98466.19;;;6.00;100.00
47330;BME280;33060;50.178;7.570;2022-11-11T03:50:48;98470.59;;;6.00;100.00
47330;BME280;33060;50.178;7.570;2022-11-11T03:53:34;98475.69;;;6.04;100.00
47330;BME280;33060;50.178;7.570;2022-11-11T03:56:19;98480.22;;;5.98;100.00
47330;BME280;33060;50.178;7.570;2022-11-11T03:59:04;98476.13;;;5.87;100.00
47330;BME280;33060;50.178;7.570;2022-11-11T04:01:49;98478.88;;;5.83;100.00
47330;BME280;33060;50.178;7.570;2022-11-11T04:04:53;98475.31;;;5.85;100.00
47330;BME280;33060;50.178;7.570;2022-11-11T04:07:57;98481.88;;;5.69;100.00
47330;BME280;33060;50.178;7.570;2022-11-11T04:11:07;98486.81;;;5.49;100.00
47330;BME280;33060;50.178;7.570;2022-11-11T04:13:56;98488.16;;;5.29;100.00
47330;BME280;33060;50.178;7.570;2022-11-11T04:17:01;98480.63;;;4.83;100.00
47330;BME280;33060;50.178;7.570;2022-11-11T04:19:47;98484.41;;;4.71;100.00
47330;BME280;33060;50.178;7.570;2022-11-11T04:22:51;98483.75;;;4.62;100.00
47330;BME280;33060;50.178;7.570;2022-11-11T04:25:37;98482.22;;;4.51;100.00
47330;BME280;33060;50.178;7.570;2022-11-11T04:28:34;98490.97;;;4.50;100.00
47330;BME280;33060;50.178;7.570;2022-11-11T04:31:38;98490.53;;;4.32;100.00
47330;BME280;33060;50.178;7.570;2022-11-11T04:34:48;98490.06;;;4.13;100.00
47330;BME280;33060;50.178;7.570;2022-11-11T04:37:35;98480.59;;;4.07;100.00
47330;BME280;33060;50.178;7.570;2022-11-11T04:40:21;98478.97;;;4.03;100.00
47330;BME280;33060;50.178;7.570;2022-11-11T04:43:25;98484.25;;;4.00;100.00
47330;BME280;33060;50.178;7.570;2022-11-11T04:46:10;98486.13;;;3.93;100.00
47330;BME280;33060;50.178;7.570;2022-11-11T04:48:55;98482.84;;;3.84;100.00
47330;BME280;33060;50.178;7.570;2022-11-11T04:51:40;98478.69;;;3.75;100.00
47330;BME280;33060;50.178;7.570;2022-11-11T04:54:44;98478.72;;;3.74;100.00
47330;BME280;33060;50.178;7.570;2022-11-11T04:57:48;98478.94;;;3.61;100.00
47330;BME280;33060;50.178;7.570;2022-11-11T05:00:34;98491.06;;;3.65;100.00
47330;BME280;33060;50.178;7.570;2022-11-11T05:03:19;98483.91;;;3.75;100.00
47330;BME280;33060;50.178;7.570;2022-11-11T05:06:08;98483.34;;;3.59;100.00
47330;BME280;33060;50.178;7.570;2022-11-11T05:09:13;98488.22;;;3.30;100.00
47330;BME280;33060;50.178;7.570;2022-11-11T05:11:58;98484.59;;;3.37;100.00
47330;BME280;33060;50.178;7.570;2022-11-11T05:14:43;98482.00;;;3.37;100.00
47330;BME280;33060;50.178;7.570;2022-11-11T05:17:47;98486.44;;;3.33;100.00
47330;BME280;33060;50.178;7.570;2022-11-11T05:20:51;98480.44;;;3.27;100.00
47330;BME280;33060;50.178;7.570;2022-11-11T05:23:55;98482.94;;;3.34;100.00
47330;BME280;33060;50.178;7.570;2022-11-11T05:26:59;98482.06;;;3.34;100.00
47330;BME280;33060;50.178;7.570;2022-11-11T05:29:44;98472.44;;;3.37;100.00
47330;BME280;33060;50.178;7.570;2022-11-11T05:32:29;98464.25;;;3.56;100.00
47330;BME280;33060;50.178;7.570;2022-11-11T05:35:16;98471.06;;;3.63;100.00
47330;BME280;33060;50.178;7.570;2022-11-11T05:38:02;98476.41;;;3.58;100.00
47330;BME280;33060;50.178;7.570;2022-11-11T05:41:06;98474.84;;;3.48;100.00
47330;BME280;33060;50.178;7.570;2022-11-11T05:43:51;98478.28;;;3.50;100.00
47330;BME280;33060;50.178;7.570;2022-11-11T05:46:37;98477.47;;;3.47;100.00
47330;BME280;33060;50.178;7.570;2022-11-11T05:49:22;98478.31;;;3.47;100.00
47330;BME280;33060;50.178;7.570;2022-11-11T05:52:13;98476.59;;;3.46;100.00
47330;BME280;33060;50.178;7.570;2022-11-11T05:55:00;98492.06;;;3.58;100.00
47330;BME280;33060;50.178;7.570;2022-11-11T05:57:45;98488.97;;;3.83;100.00
47330;BME280;33060;50.178;7.570;2022-11-11T06:00:30;98487.78;;;3.97;100.00
47330;BME280;33060;50.178;7.570;2022-11-11T06:03:16;98482.84;;;3.84;99.65
47330;BME280;33060;50.178;7.570;2022-11-11T06:06:01;98486.47;;;3.77;100.00
47330;BME280;33060;50.178;7.570;2022-11-11T06:08:46;98501.50;;;3.64;100.00
47330;BME280;33060;50.178;7.570;2022-11-11T06:11:31;98499.06;;;3.56;100.00
47330;BME280;33060;50.178;7.570;2022-11-11T06:14:18;98504.28;;;3.55;100.00
47330;BME280;33060;50.178;7.570;2022-11-11T06:17:03;98513.88;;;3.53;100.00
47330;BME280;33060;50.178;7.570;2022-11-11T06:19:48;98516.56;;;3.50;100.00
47330;BME280;33060;50.178;7.570;2022-11-11T06:22:33;98517.66;;;3.36;99.75
47330;BME280;33060;50.178;7.570;2022-11-11T06:25:37;98524.72;;;3.30;99.94
47330;BME280;33060;50.178;7.570;2022-11-11T06:28:49;98523.91;;;3.28;100.00
47330;BME280;33060;50.178;7.570;2022-11-11T06:31:35;98517.00;;;3.25;100.00
47330;BME280;33060;50.178;7.570;2022-11-11T06:34:20;98521.44;;;3.19;99.53
47330;BME280;33060;50.178;7.570;2022-11-11T06:37:06;98517.13;;;3.18;100.00
47330;BME280;33060;50.178;7.570;2022-11-11T06:39:51;98519.81;;;3.11;100.00
47330;BME280;33060;50.178;7.570;2022-11-11T06:42:37;98522.28;;;3.22;100.00
47330;BME280;33060;50.178;7.570;2022-11-11T06:45:23;98528.34;;;3.21;100.00
47330;BME280;33060;50.178;7.570;2022-11-11T06:48:08;98534.28;;;3.29;100.00
47330;BME280;33060;50.178;7.570;2022-11-11T06:50:54;98527.19;;;3.39;100.00
47330;BME280;33060;50.178;7.570;2022-11-11T06:53:40;98517.44;;;3.49;100.00
47330;BME280;33060;50.178;7.570;2022-11-11T06:56:26;98513.78;;;3.59;100.00
47330;BME280;33060;50.178;7.570;2022-11-11T06:59:10;98521.69;;;3.54;99.76
47330;BME280;33060;50.178;7.570;2022-11-11T07:01:56;98523.34;;;3.58;99.90
47330;BME280;33060;50.178;7.570;2022-11-11T07:04:41;98527.53;;;3.67;100.00
47330;BME280;33060;50.178;7.570;2022-11-11T07:07:26;98532.47;;;3.81;100.00
47330;BME280;33060;50.178;7.570;2022-11-11T07:10:12;98531.28;;;3.97;100.00
47330;BME280;33060;50.178;7.570;2022-11-11T07:12:59;98532.81;;;4.07;100.00
47330;BME280;33060;50.178;7.570;2022-11-11T07:15:44;98530.22;;;4.09;99.66
47330;BME280;33060;50.178;7.570;2022-11-11T07:18:30;98527.25;;;4.24;99.92
47330;BME280;33060;50.178;7.570;2022-11-11T07:21:15;98529.66;;;4.35;99.66
47330;BME280;33060;50.178;7.570;2022-11-11T07:24:00;98536.44;;;4.43;100.00
47330;BME280;33060;50.178;7.570;2022-11-11T07:26:46;98535.34;;;4.53;98.87
47330;BME280;33060;50.178;7.570;2022-11-11T07:29:31;98545.59;;;4.63;100.00
47330;BME280;33060;50.178;7.570;2022-11-11T07:32:16;98541.56;;;4.85;100.00
47330;BME280;33060;50.178;7.570;2022-11-11T07:35:02;98547.44;;;4.96;99.65
47330;BME280;33060;50.178;7.570;2022-11-11T07:37:48;98545.59;;;5.00;98.95
47330;BME280;33060;50.178;7.570;2022-11-11T07:40:33;98555.88;;;5.07;97.11
47330;BME280;33060;50.178;7.570;2022-11-11T07:43:18;98553.97;;;5.14;96.96
47330;BME280;33060;50.178;7.570;2022-11-11T07:46:04;98570.25;;;5.25;97.50
47330;BME280;33060;50.178;7.570;2022-11-11T07:48:49;98573.41;;;5.39;96.38
47330;BME280;33060;50.178;7.570;2022-11-11T07:51:34;98581.13;;;5.44;96.32
47330;BME280;33060;50.178;7.570;2022-11-11T07:54:20;98575.88;;;5.44;95.62
47330;BME280;33060;50.178;7.570;2022-11-11T07:57:05;98578.63;;;5.39;95.22
47330;BME280;33060;50.178;7.570;2022-11-11T07:59:50;98581.59;;;5.60;94.98
47330;BME280;33060;50.178;7.570;2022-11-11T08:02:36;98589.22;;;5.69;94.73
47330;BME280;33060;50.178;7.570;2022-11-11T08:05:21;98589.03;;;5.77;93.49
47330;BME280;33060;50.178;7.570;2022-11-11T08:08:07;98584.31;;;5.89;94.42
47330;BME280;33060;50.178;7.570;2022-11-11T08:10:54;98584.19;;;5.95;95.01
47330;BME280;33060;50.178;7.570;2022-11-11T08:13:39;98590.13;;;6.02;96.46
47330;BME280;33060;50.178;7.570;2022-11-11T08:16:25;98591.63;;;6.11;96.58
47330;BME280;33060;50.178;7.570;2022-11-11T08:19:10;98599.22;;;6.20;96.09
47330;BME280;33060;50.178;7.570;2022-11-11T08:21:55;98594.31;;;6.39;95.71
47330;BME280;33060;50.178;7.570;2022-11-11T08:24:41;98591.22;;;6.56;94.14
47330;BME280;33060;50.178;7.570;2022-11-11T08:27:47;98590.13;;;6.63;93.46
47330;BME280;33060;50.178;7.570;2022-11-11T08:30:32;98575.03;;;6.71;93.13
47330;BME280;33060;50.178;7.570;2022-11-11T08:33:17;98572.81;;;6.87;92.41
47330;BME280;33060;50.178;7.570;2022-11-11T08:36:17;98567.78;;;7.07;92.57
47330;BME280;33060;50.178;7.570;2022-11-11T08:39:05;98569.72;;;7.28;92.17
47330;BME280;33060;50.178;7.570;2022-11-11T08:41:51;98573.47;;;7.48;94.59
47330;BME280;33060;50.178;7.570;2022-11-11T08:44:36;98577.44;;;7.59;95.35
47330;BME280;33060;50.178;7.570;2022-11-11T08:47:21;98570.47;;;7.58;95.22
47330;BME280;33060;50.178;7.570;2022-11-11T08:50:09;98562.94;;;7.74;94.12
47330;BME280;33060;50.178;7.570;2022-11-11T08:52:55;98564.22;;;7.87;91.67
47330;BME280;33060;50.178;7.570;2022-11-11T08:55:40;98566.44;;;8.00;91.68
47330;BME280;33060;50.178;7.570;2022-11-11T08:58:25;98561.19;;;8.23;90.71
47330;BME280;33060;50.178;7.570;2022-11-11T09:01:12;98566.22;;;8.54;89.65
47330;BME280;33060;50.178;7.570;2022-11-11T09:03:57;98561.59;;;8.83;87.36
47330;BME280;33060;50.178;7.570;2022-11-11T09:07:03;98566.81;;;9.06;84.75
47330;BME280;33060;50.178;7.570;2022-11-11T09:09:49;98570.50;;;9.24;85.10
47330;BME280;33060;50.178;7.570;2022-11-11T09:12:34;98573.69;;;9.32;85.94
47330;BME280;33060;50.178;7.570;2022-11-11T09:15:19;98572.31;;;9.44;85.23
47330;BME280;33060;50.178;7.570;2022-11-11T09:18:05;98574.09;;;9.63;86.29
47330;BME280;33060;50.178;7.570;2022-11-11T09:20:50;98568.41;;;9.74;84.78
47330;BME280;33060;50.178;7.570;2022-11-11T09:23:35;98570.28;;;9.71;87.12
47330;BME280;33060;50.178;7.570;2022-11-11T09:26:21;98560.59;;;9.71;84.91
47330;BME280;33060;50.178;7.570;2022-11-11T09:29:06;98570.22;;;9.72;86.25
47330;BME280;33060;50.178;7.570;2022-11-11T09:31:51;98568.19;;;9.79;87.22
47330;BME280;33060;50.178;7.570;2022-11-11T09:34:36;98578.03;;;9.96;85.00
47330;BME280;33060;50.178;7.570;2022-11-11T09:37:22;98564.88;;;10.14;86.09
47330;BME280;33060;50.178;7.570;2022-11-11T09:40:14;98560.91;;;10.26;84.88
47330;BME280;33060;50.178;7.570;2022-11-11T09:43:24;98557.00;;;10.35;83.60
47330;BME280;33060;50.178;7.570;2022-11-11T09:52:40;98555.31;;;10.71;80.03
47330;BME280;33060;50.178;7.570;2022-11-11T09:55:32;98558.50;;;10.97;79.50
47330;BME280;33060;50.178;7.570;2022-11-11T09:58:36;98557.25;;;11.23;77.19
47330;BME280;33060;50.178;7.570;2022-11-11T10:01:42;98559.19;;;11.37;75.74
47330;BME280;33060;50.178;7.570;2022-11-11T10:04:44;98562.47;;;11.42;76.97
47330;BME280;33060;50.178;7.570;2022-11-11T10:07:40;98555.44;;;11.59;75.98
47330;BME280;33060;50.178;7.570;2022-11-11T10:10:37;98558.06;;;11.77;74.66
47330;BME280;33060;50.178;7.570;2022-11-11T10:13:29;98559.50;;;12.01;74.21
47330;BME280;33060;50.178;7.570;2022-11-11T10:16:30;98556.06;;;12.16;74.29
47330;BME280;33060;50.178;7.570;2022-11-11T10:19:37;98558.06;;;12.11;73.40
47330;BME280;33060;50.178;7.570;2022-11-11T10:22:37;98563.78;;;12.37;72.09
47330;BME280;33060;50.178;7.570;2022-11-11T10:25:25;98562.03;;;12.53;72.97
47330;BME280;33060;50.178;7.570;2022-11-11T10:28:18;98562.88;;;12.54;71.87
47330;BME280;33060;50.178;7.570;2022-11-11T10:31:13;98558.84;;;12.47;71.17
47330;BME280;33060;50.178;7.570;2022-11-11T10:34:02;98569.03;;;12.54;71.17
47330;BME280;33060;50.178;7.570;2022-11-11T10:36:53;98566.06;;;12.60;71.14
47330;BME280;33060;50.178;7.570;2022-11-11T10:42:48;98562.81;;;12.55;71.21
47330;BME280;33060;50.178;7.570;2022-11-11T10:48:52;98560.28;;;12.69;70.51
47330;BME280;33060;50.178;7.570;2022-11-11T10:51:51;98555.13;;;12.66;71.79
47330;BME280;33060;50.178;7.570;2022-11-11T10:54:42;98559.91;;;12.76;70.84
47330;BME280;33060;50.178;7.570;2022-11-11T10:57:51;98563.06;;;12.66;73.20
47330;BME280;33060;50.178;7.570;2022-11-11T11:00:38;98564.53;;;12.72;73.11
47330;BME280;33060;50.178;7.570;2022-11-11T11:03:35;98561.28;;;12.67;73.88
47330;BME280;33060;50.178;7.570;2022-11-11T11:06:26;98556.78;;;12.69;73.89
47330;BME280;33060;50.178;7.570;2022-11-11T11:09:25;98550.94;;;12.62;74.12
47330;BME280;33060;50.178;7.570;2022-11-11T11:12:28;98556.03;;;12.50;74.16
47330;BME280;33060;50.178;7.570;2022-11-11T11:15:20;98546.84;;;12.57;73.84
47330;BME280;33060;50.178;7.570;2022-11-11T11:18:13;98544.53;;;12.66;73.78
47330;BME280;33060;50.178;7.570;2022-11-11T11:21:08;98547.09;;;12.68;73.63
47330;BME280;33060;50.178;7.570;2022-11-11T11:23:53;98546.50;;;12.63;74.02
47330;BME280;33060;50.178;7.570;2022-11-11T11:26:44;98549.31;;;12.76;72.73
47330;BME280;33060;50.178;7.570;2022-11-11T11:29:43;98544.63;;;12.65;72.90
47330;BME280;33060;50.178;7.570;2022-11-11T11:32:30;98545.38;;;12.67;72.72
47330;BME280;33060;50.178;7.570;2022-11-11T11:35:35;98539.69;;;12.74;72.85
47330;BME280;33060;50.178;7.570;2022-11-11T11:38:20;98547.44;;;12.93;72.11
47330;BME280;33060;50.178;7.570;2022-11-11T11:41:43;98550.03;;;12.95;71.91
47330;BME280;33060;50.178;7.570;2022-11-11T11:44:30;98552.00;;;12.91;72.03
47330;BME280;33060;50.178;7.570;2022-11-11T11:50:52;98547.53;;;12.92;72.46
47330;BME280;33060;50.178;7.570;2022-11-11T11:54:12;98556.00;;;12.98;70.27
47330;BME280;33060;50.178;7.570;2022-11-11T11:57:03;98550.19;;;12.92;71.37
47330;BME280;33060;50.178;7.570;2022-11-11T12:00:02;98539.94;;;12.70;71.17
47330;BME280;33060;50.178;7.570;2022-11-11T12:03:45;98541.38;;;12.76;70.65
47330;BME280;33060;50.178;7.570;2022-11-11T12:07:14;98544.38;;;12.85;69.21
47330;BME280;33060;50.178;7.570;2022-11-11T12:10:30;98543.44;;;13.02;68.98
47330;BME280;33060;50.178;7.570;2022-11-11T12:23:02;98535.66;;;13.15;65.42
47330;BME280;33060;50.178;7.570;2022-11-11T12:29:01;98537.47;;;13.14;62.30
47330;BME280;33060;50.178;7.570;2022-11-11T12:44:14;98522.06;;;13.37;62.02
47330;BME280;33060;50.178;7.570;2022-11-11T12:47:38;98522.84;;;13.39;60.88
47330;BME280;33060;50.178;7.570;2022-11-11T12:59:33;98528.16;;;13.23;62.46
47330;BME280;33060;50.178;7.570;2022-11-11T13:17:47;98521.63;;;13.28;61.34
47330;BME280;33060;50.178;7.570;2022-11-11T13:20:49;98516.69;;;13.38;61.55
47330;BME280;33060;50.178;7.570;2022-11-11T13:23:38;98520.00;;;13.42;60.08
47330;BME280;33060;50.178;7.570;2022-11-11T13:32:28;98531.38;;;13.44;60.70
47330;BME280;33060;50.178;7.570;2022-11-11T13:35:32;98523.75;;;13.38;61.25
47330;BME280;33060;50.178;7.570;2022-11-11T13:38:26;98526.50;;;13.36;62.08
47330;BME280;33060;50.178;7.570;2022-11-11T13:41:23;98527.88;;;13.43;60.22
47330;BME280;33060;50.178;7.570;2022-11-11T13:44:08;98528.63;;;13.45;60.86
47330;BME280;33060;50.178;7.570;2022-11-11T13:47:01;98534.97;;;13.43;60.17
47330;BME280;33060;50.178;7.570;2022-11-11T13:49:57;98541.13;;;13.43;59.13
47330;BME280;33060;50.178;7.570;2022-11-11T13:53:00;98540.44;;;13.40;59.59
47330;BME280;33060;50.178;7.570;2022-11-11T13:55:46;98538.91;;;13.36;60.92
47330;BME280;33060;50.178;7.570;2022-11-11T13:58:40;98541.66;;;13.34;58.69
47330;BME280;33060;50.178;7.570;2022-11-11T14:01:35;98531.22;;;13.31;59.61
47330;BME280;33060;50.178;7.570;2022-11-11T14:04:26;98533.78;;;13.33;60.04
47330;BME280;33060;50.178;7.570;2022-11-11T14:07:50;98532.94;;;13.32;57.83
47330;BME280;33060;50.178;7.570;2022-11-11T14:22:27;98529.41;;;13.16;60.01
47330;BME280;33060;50.178;7.570;2022-11-11T14:25:26;98532.06;;;13.16;59.14
47330;BME280;33060;50.178;7.570;2022-11-11T14:28:30;98542.06;;;13.11;60.37
47330;BME280;33060;50.178;7.570;2022-11-11T14:34:23;98532.31;;;13.11;61.21
47330;BME280;33060;50.178;7.570;2022-11-11T14:37:23;98524.47;;;13.10;61.73
47330;BME280;33060;50.178;7.570;2022-11-11T14:40:11;98525.94;;;12.99;65.79
47330;BME280;33060;50.178;7.570;2022-11-11T14:42:58;98534.38;;;13.06;67.80
47330;BME280;33060;50.178;7.570;2022-11-11T14:48:58;98529.00;;;12.92;69.88
47330;BME280;33060;50.178;7.570;2022-11-11T14:51:50;98523.03;;;12.72;71.58
47330;BME280;33060;50.178;7.570;2022-11-11T14:57:54;98531.81;;;12.24;72.77
47330;BME280;33060;50.178;7.570;2022-11-11T15:03:43;98525.88;;;11.69;75.22
47330;BME280;33060;50.178;7.570;2022-11-11T15:07:04;98527.00;;;11.28;78.45
47330;BME280;33060;50.178;7.570;2022-11-11T15:15:50;98514.91;;;10.88;78.92
47330;BME280;33060;50.178;7.570;2022-11-11T15:28:06;98511.53;;;9.89;81.33
47330;BME280;33060;50.178;7.570;2022-11-11T15:31:04;98507.72;;;9.55;81.69
47330;BME280;33060;50.178;7.570;2022-11-11T15:39:44;98505.81;;;8.96;85.06
47330;BME280;33060;50.178;7.570;2022-11-11T15:42:36;98516.06;;;8.81;85.91
47330;BME280;33060;50.178;7.570;2022-11-11T15:45:27;98510.97;;;8.54;84.91
47330;BME280;33060;50.178;7.570;2022-11-11T15:48:18;98511.81;;;8.31;85.40
47330;BME280;33060;50.178;7.570;2022-11-11T15:57:28;98524.50;;;7.72;83.89
47330;BME280;33060;50.178;7.570;2022-11-11T16:03:14;98531.53;;;7.45;86.53
47330;BME280;33060;50.178;7.570;2022-11-11T16:06:02;98533.19;;;7.49;88.32
47330;BME280;33060;50.178;7.570;2022-11-11T16:08:50;98537.59;;;7.47;88.50
47330;BME280;33060;50.178;7.570;2022-11-11T16:11:38;98535.25;;;7.39;88.26
47330;BME280;33060;50.178;7.570;2022-11-11T16:14:37;98530.81;;;7.41;89.04
47330;BME280;33060;50.178;7.570;2022-11-11T16:17:29;98531.00;;;7.35;88.27
47330;BME280;33060;50.178;7.570;2022-11-11T16:20:21;98535.81;;;7.22;87.04
47330;BME280;33060;50.178;7.570;2022-11-11T16:23:17;98541.56;;;7.07;88.04
47330;BME280;33060;50.178;7.570;2022-11-11T16:26:04;98529.44;;;7.03;88.61
47330;BME280;33060;50.178;7.570;2022-11-11T16:28:51;98533.88;;;7.01;89.33
47330;BME280;33060;50.178;7.570;2022-11-11T16:31:39;98539.97;;;7.01;89.42
47330;BME280;33060;50.178;7.570;2022-11-11T16:37:15;98533.47;;;6.87;89.40
47330;BME280;33060;50.178;7.570;2022-11-11T16:40:27;98529.72;;;6.66;89.20
47330;BME280;33060;50.178;7.570;2022-11-11T16:43:24;98528.69;;;6.42;89.98
47330;BME280;33060;50.178;7.570;2022-11-11T16:46:13;98535.97;;;6.32;90.64
47330;BME280;33060;50.178;7.570;2022-11-11T16:49:45;98528.75;;;6.40;89.93
47330;BME280;33060;50.178;7.570;2022-11-11T16:54:57;98521.16;;;6.31;90.11
47330;BME280;33060;50.178;7.570;2022-11-11T16:57:44;98528.66;;;6.14;89.68
47330;BME280;33060;50.178;7.570;2022-11-11T17:00:29;98527.00;;;6.11;90.57
47330;BME280;33060;50.178;7.570;2022-11-11T17:03:18;98528.31;;;6.26;91.34
47330;BME280;33060;50.178;7.570;2022-11-11T17:06:07;98521.84;;;6.38;90.91
47330;BME280;33060;50.178;7.570;2022-11-11T17:08:53;98524.06;;;6.51;91.29
47330;BME280;33060;50.178;7.570;2022-11-11T17:14:25;98536.66;;;6.39;89.04
47330;BME280;33060;50.178;7.570;2022-11-11T17:17:11;98538.16;;;6.18;89.39
47330;BME280;33060;50.178;7.570;2022-11-11T17:19:59;98536.88;;;6.02;90.18
47330;BME280;33060;50.178;7.570;2022-11-11T17:22:53;98529.41;;;5.86;89.63
47330;BME280;33060;50.178;7.570;2022-11-11T17:25:38;98537.16;;;5.89;90.91